Aviation Digital Data Service (ADDS)

Output produced by METARs form (0328 UTC 30 May 2017)
found at http://www.aviationweather.gov/adds/metars/
 
TAF SCFA 292247Z 3000/3024 18005KT 9999 FEW021 TN13/3008Z TX17/3017Z 
     BECMG 3008/3010 08003KT 
     BECMG 3013/3015 18005KT 
     BECMG 3017/3019 22016KT
       
TAF SCAR 292253Z 3000/3024 18005KT 9999 OVC023 TN18/3007Z TX20/2917Z 
     BECMG 3004/3006 08003KT 
     BECMG 3012/3014 16005KT 
     BECMG 3016/3018 20012KT CAVOK
       
TAF SCBA 292253Z 3000/3100 VRB02KT 9999 BKN006 OVC080 TNM06/3011Z TX04/3019Z 
     PROB40 
     TEMPO 3002/3007 0800 FZFG OVC002 
     BECMG 3011/3013 30007KT BKN040 
     TEMPO 3013/3017 8000 -SHRA BKN035
       
TAF SCCF 292247Z 3000/3024 28012KT CAVOK TN03/3011Z TX19/3018Z B
     BECMG 3004/3006 10020KT 
     BECMG 3013/3015 30005KT 
     BECMG 3017/3019 27022KT
       
TAF SCIE 292230Z 3000/3024 22005KT CAVOK TX14/3019Z TN04/3011Z 
     BECMG 3000/3002 14004KT 
     TEMPO 3006/3012 3000 BR 
     BECMG 3016/3018 23008KT
       
TAF SCAT 292247Z 3000/3024 20005KT CAVOK TN06/3011Z TX19/3018Z 
     BECMG 3004/3006 11005KT 
     BECMG 3012/3014 18005KT 
     BECMG 3016/3018 24014KT
       
TAF SCDA 292247Z 3000/3024 18005KT 9999 OVC023 TN16/3007Z TX18/3017Z 
     BECMG 3006/3008 12003KT 
     BECMG 3013/3015 16008KT 
     BECMG 3017/3019 21018KT CAVOK
       
TAF SCSE 292230Z 3000/3024 29006KT 9999 SCT015 BKN020 TX18/3019Z TN10/3011Z 
     BECMG 3001/3003 14004KT 
     TEMPO 3007/3012 BKN012 
     BECMG 3016/3018 30008KT
       
TAF SCTE 292248Z 3000/3100 VRB02KT 9999 BKN008 TN05/3005Z TX09/3018Z 
     BECMG 3001/3003 2000 BR OVC006 
     TEMPO 3004/3012 0600 FG OVC003 
     BECMG 3013/3015 34005KT 9999 NSW BKN012 
     BECMG 3017/3019 03009KT BKN025
       
TAF SCCI 292237Z 3000/3100 35012KT CAVOK TN01/3011Z TX06/3018Z 
     TEMPO 3000/3006 35012G25KT 9000 -SHRA BKN030 
     BECMG 3005/3007 31016KT 9999 SCT035 
     BECMG 3012/3014 28012KT SCT030 
     BECMG 3020/3022 35010KT
       
TAF SCEL 292230Z 3000/3024 19008KT CAVOK TX18/3019Z TN03/3011Z 
     BECMG 3004/3006 VRB02KT 5000 BR 
     TEMPO 3008/3012 0800 BCFG 
     BECMG 3014/3016 19006KT CAVOK